Time;durP1;ratioP1;P1;durP2;ratioP2;P2;SDS_P1;SDS_P2;PMS_P1;PMS_P2;Temp;Humidity;BMP_temperature;BMP_pressure;BME280_temperature;BME280_humidity;BME280_pressure;Samples;Min_cycle;Max_cycle;Signal;HPM_P1;HPM_P2
2022/05/29 00:00:48;;;;;;;1.60;0.40;;;11.70;55.40;;;;;;5113836;28;20106;-87
2022/05/29 00:03:14;;;;;;;;;;;11.70;55.50;;;;;;5114111;28;20030;-85
2022/05/29 00:05:41;;;;;;;1.63;0.38;;;11.60;55.70;;;;;;5112691;28;19938;-83
2022/05/29 00:08:10;;;;;;;2.55;1.30;;;11.50;55.60;;;;;;5112656;28;20061;-88
2022/05/29 00:10:38;;;;;;;0.45;0.30;;;11.50;55.90;;;;;;5113705;28;20059;-85
2022/05/29 00:13:04;;;;;;;2.10;0.50;;;11.50;56.30;;;;;;5112180;28;20032;-86
2022/05/29 00:15:30;;;;;;;2.20;0.30;;;11.40;56.60;;;;;;5113733;28;20023;-85
2022/05/29 00:17:55;;;;;;;;;;;11.40;56.90;;;;;;5112594;28;20080;-88
2022/05/29 00:20:21;;;;;;;1.65;0.40;;;11.40;57.50;;;;;;5112489;28;19923;-87
2022/05/29 00:22:46;;;;;;;;;;;11.30;57.30;;;;;;5112817;28;20032;-84
2022/05/29 00:25:12;;;;;;;4.93;0.40;;;11.30;57.80;;;;;;5112189;28;19968;-86
2022/05/29 00:27:38;;;;;;;;;;;11.30;57.20;;;;;;5112690;28;20115;-87
2022/05/29 00:30:08;;;;;;;2.53;0.40;;;11.30;56.70;;;;;;5113276;28;20327;-85
2022/05/29 00:32:33;;;;;;;0.85;0.30;;;11.40;57.20;;;;;;5112704;28;20127;-88
2022/05/29 00:34:59;;;;;;;;;;;11.40;56.30;;;;;;5113547;28;20107;-88
2022/05/29 00:37:25;;;;;;;1.10;0.30;;;11.50;54.30;;;;;;5113611;28;19907;-85
2022/05/29 00:39:52;;;;;;;;;;;11.60;54.40;;;;;;5112535;28;20034;-83
2022/05/29 00:42:22;;;;;;;0.90;0.30;;;11.70;55.20;;;;;;5112409;28;20296;-87
2022/05/29 00:44:49;;;;;;;0.75;0.30;;;11.70;55.50;;;;;;5113112;28;20120;-86
2022/05/29 00:47:18;;;;;;;0.35;0.30;;;11.70;55.20;;;;;;5113217;28;20016;-86
2022/05/29 00:49:47;;;;;;;2.83;0.40;;;11.80;55.10;;;;;;5111685;28;20032;-86
2022/05/29 00:52:21;;;;;;;1.88;0.40;;;11.80;54.80;;;;;;5112913;28;20119;-84
2022/05/29 00:55:00;;;;;;;1.65;0.30;;;11.90;54.00;;;;;;5111551;28;20023;-88
2022/05/29 00:57:39;;;;;;;1.48;0.40;;;11.90;54.90;;;;;;5102919;28;20101;-84
2022/05/29 01:00:20;;;;;;;0.73;0.30;;;11.90;54.40;;;;;;5112414;28;20026;-88
2022/05/29 01:02:46;;;;;;;0.63;0.25;;;11.90;54.90;;;;;;5112660;28;20022;-86
2022/05/29 01:05:15;;;;;;;1.73;0.40;;;11.90;54.40;;;;;;5112785;28;20031;-87
2022/05/29 01:07:44;;;;;;;0.90;0.40;;;11.90;55.60;;;;;;5112784;28;20028;-87
2022/05/29 01:10:11;;;;;;;1.00;0.30;;;11.90;55.10;;;;;;5112215;28;20118;-87
2022/05/29 01:12:40;;;;;;;1.55;0.30;;;11.80;54.70;;;;;;5112460;28;20027;-86
2022/05/29 01:15:27;;;;;;;2.80;0.30;;;11.80;55.20;;;;;;5112447;28;20103;-87
2022/05/29 01:18:11;;;;;;;0.70;0.30;;;11.90;55.60;;;;;;5112195;28;20069;-86
2022/05/29 01:20:49;;;;;;;2.08;0.40;;;11.80;55.50;;;;;;5111252;28;20038;-86
2022/05/29 01:23:44;;;;;;;1.30;0.30;;;11.80;55.60;;;;;;5111003;28;20024;-86
2022/05/29 01:26:18;;;;;;;1.92;0.40;;;11.80;55.00;;;;;;5111105;28;20400;-88
2022/05/29 01:28:59;;;;;;;6.40;0.30;;;11.80;55.20;;;;;;5112249;28;20556;-87
2022/05/29 01:31:44;;;;;;;4.75;0.40;;;11.70;55.30;;;;;;5112007;28;20092;-87
2022/05/29 01:34:13;;;;;;;2.05;0.30;;;11.70;55.60;;;;;;5111084;28;20069;-88
2022/05/29 01:36:59;;;;;;;1.77;0.40;;;11.70;55.20;;;;;;5111941;28;20106;-88
2022/05/29 01:39:29;;;;;;;10.60;0.77;;;11.70;55.70;;;;;;5112291;28;20023;-88
2022/05/29 01:41:58;;;;;;;1.70;0.40;;;11.60;55.20;;;;;;5110664;28;20031;-88
2022/05/29 01:44:32;;;;;;;1.45;0.30;;;11.60;55.10;;;;;;5111960;28;20481;-87
2022/05/29 01:47:24;;;;;;;1.75;1.13;;;11.50;55.10;;;;;;5111753;28;20024;-86
2022/05/29 01:49:55;;;;;;;2.15;0.38;;;11.50;55.50;;;;;;5111970;28;20025;-88
2022/05/29 01:52:33;;;;;;;4.60;0.40;;;11.50;55.60;;;;;;5110190;28;20118;-86
2022/05/29 01:55:03;;;;;;;1.60;0.30;;;11.40;56.10;;;;;;5111690;28;20035;-87
2022/05/29 01:57:37;;;;;;;1.95;0.47;;;11.40;56.10;;;;;;5110513;28;20073;-86
2022/05/29 02:00:19;;;;;;;1.48;0.32;;;11.40;56.40;;;;;;5109670;28;20046;-88
2022/05/29 02:03:05;;;;;;;3.17;0.50;;;11.30;57.00;;;;;;5109935;28;20032;-87
2022/05/29 02:05:55;;;;;;;20.50;0.95;;;11.30;57.50;;;;;;5109745;28;20051;-87
2022/05/29 02:08:32;;;;;;;1.50;0.50;;;11.20;58.00;;;;;;5111486;28;20058;-88
2022/05/29 02:11:05;;;;;;;1.23;0.40;;;11.20;58.50;;;;;;5109534;28;20038;-88
2022/05/29 02:13:41;;;;;;;5.03;0.43;;;11.30;59.20;;;;;;5110983;28;20054;-87
2022/05/29 02:16:22;;;;;;;1.55;0.57;;;11.20;59.50;;;;;;5111329;28;20020;-87
2022/05/29 02:19:08;;;;;;;1.23;0.30;;;11.20;59.80;;;;;;5111658;28;20027;-88
2022/05/29 02:21:47;;;;;;;0.88;0.30;;;11.20;60.30;;;;;;5109652;28;20030;-88
2022/05/29 02:24:16;;;;;;;1.83;0.40;;;11.20;60.60;;;;;;5109309;28;20035;-88
2022/05/29 02:26:46;;;;;;;1.50;0.40;;;11.20;61.10;;;;;;5111486;28;20039;-86
2022/05/29 02:29:12;;;;;;;2.03;0.30;;;11.20;61.40;;;;;;5109796;28;20545;-86
2022/05/29 02:31:56;;;;;;;1.10;0.47;;;11.20;61.80;;;;;;5111153;28;20027;-87
2022/05/29 02:34:38;;;;;;;2.42;0.50;;;11.30;62.10;;;;;;5110264;28;20051;-87
2022/05/29 02:37:25;;;;;;;2.40;0.60;;;11.30;62.40;;;;;;5110452;28;20511;-85
2022/05/29 02:40:03;;;;;;;;;;;11.30;62.70;;;;;;5110159;28;20055;-87
2022/05/29 02:42:38;;;;;;;;;;;11.30;63.40;;;;;;5111612;28;20384;-84
2022/05/29 02:45:31;;;;;;;1.33;0.43;;;11.30;63.80;;;;;;5110996;28;19923;-83
2022/05/29 02:48:49;;;;;;;3.60;0.30;;;11.30;63.80;;;;;;5110495;28;20080;-88
2022/05/29 02:51:31;;;;;;;1.52;0.60;;;11.20;64.20;;;;;;5085166;28;20040;-87
2022/05/29 02:53:57;;;;;;;3.45;0.43;;;11.20;63.60;;;;;;5110288;28;20035;-86
2022/05/29 02:56:23;;;;;;;;;;;11.20;63.60;;;;;;5111009;28;20103;-86
2022/05/29 02:58:52;;;;;;;1.48;0.35;;;11.30;64.80;;;;;;5109505;28;19946;-87
2022/05/29 03:01:24;;;;;;;2.38;0.40;;;11.30;65.40;;;;;;5109194;28;20117;-86
2022/05/29 03:04:12;;;;;;;2.92;0.60;;;11.30;65.60;;;;;;5110591;28;20035;-85
2022/05/29 03:06:53;;;;;;;1.00;0.32;;;11.40;66.10;;;;;;5109264;28;20023;-88
2022/05/29 03:09:38;;;;;;;1.98;0.40;;;11.40;66.20;;;;;;5109529;28;20027;-87
2022/05/29 03:12:22;;;;;;;0.98;0.40;;;11.40;66.10;;;;;;5109133;28;20500;-87
2022/05/29 03:15:15;;;;;;;2.13;1.30;;;11.40;66.40;;;;;;5110659;28;20072;-85
2022/05/29 03:17:50;;;;;;;2.35;0.40;;;11.40;66.40;;;;;;5109512;28;20110;-86
2022/05/29 03:20:43;;;;;;;3.00;0.85;;;11.50;66.40;;;;;;5110525;28;20024;-82
2022/05/29 03:23:21;;;;;;;1.48;0.40;;;11.50;66.60;;;;;;5074265;28;20040;-88
2022/05/29 03:25:58;;;;;;;6.57;0.75;;;11.60;66.60;;;;;;5112040;28;20046;-87
2022/05/29 03:28:37;;;;;;;0.90;0.40;;;11.60;67.40;;;;;;5114801;28;20028;-86
2022/05/29 03:31:09;;;;;;;2.72;0.40;;;11.70;68.30;;;;;;5113052;28;20040;-88
2022/05/29 03:33:37;;;;;;;2.10;0.50;;;11.70;68.80;;;;;;5114469;28;20024;-84
2022/05/29 03:36:07;;;;;;;7.82;0.90;;;11.70;69.30;;;;;;5112990;28;20031;-88
2022/05/29 03:38:32;;;;;;;1.77;0.60;;;11.70;69.40;;;;;;5114478;28;20084;-87
2022/05/29 03:40:58;;;;;;;;;;;11.70;69.80;;;;;;5113826;28;20024;-85
2022/05/29 03:43:24;;;;;;;3.75;0.50;;;11.70;70.30;;;;;;5113012;28;20387;-87
2022/05/29 03:45:50;;;;;;;;;;;11.70;70.60;;;;;;5114598;28;20035;-87
2022/05/29 03:48:15;;;;;;;4.75;0.40;;;11.80;70.70;;;;;;5116000;28;19942;-88
2022/05/29 03:50:41;;;;;;;;;;;11.80;70.60;;;;;;5113076;28;20499;-86
2022/05/29 03:53:07;;;;;;;1.52;0.38;;;11.80;70.40;;;;;;5112892;28;19961;-87
2022/05/29 03:55:33;;;;;;;2.33;0.60;;;11.90;70.20;;;;;;5113815;28;20076;-86
2022/05/29 03:57:58;;;;;;;;;;;11.90;70.10;;;;;;5114292;28;20032;-88
2022/05/29 04:00:25;;;;;;;0.95;0.35;;;12.00;70.80;;;;;;5112547;28;19946;-87
2022/05/29 04:02:51;;;;;;;8.32;2.50;;;12.00;71.10;;;;;;5114030;28;20026;-86
2022/05/29 04:05:20;;;;;;;2.58;0.60;;;12.10;71.30;;;;;;5113700;28;20172;-87
2022/05/29 04:13:22;;;;;;;0.70;0.40;;;12.30;69.80;;;;;;5114033;28;20112;-84
2022/05/29 04:15:47;;;;;;;;;;;12.30;70.70;;;;;;5107424;28;20490;-84
2022/05/29 04:18:18;;;;;;;2.53;0.50;;;12.40;70.00;;;;;;5112331;28;19952;-84
2022/05/29 04:20:44;;;;;;;2.00;0.93;;;12.50;69.30;;;;;;5112099;28;20028;-83
2022/05/29 04:23:11;;;;;;;3.10;0.45;;;12.60;69.50;;;;;;5113248;28;20488;-84
2022/05/29 04:25:37;;;;;;;1.85;0.95;;;12.60;69.90;;;;;;5113252;28;20039;-84
2022/05/29 04:28:02;;;;;;;;;;;12.70;69.80;;;;;;5111592;28;20024;-85
2022/05/29 04:30:29;;;;;;;1.13;0.40;;;12.70;70.80;;;;;;5112259;28;19915;-84
2022/05/29 04:33:01;;;;;;;0.98;0.30;;;12.80;70.40;;;;;;5113358;28;20027;-83
2022/05/29 04:35:35;;;;;;;2.85;0.40;;;12.80;70.00;;;;;;5114021;27;20024;-85
2022/05/29 04:38:01;;;;;;;1.95;0.40;;;12.90;70.80;;;;;;5124901;27;20065;-85
2022/05/29 04:40:27;;;;;;;;;;;13.00;70.80;;;;;;5094856;28;20031;-85
2022/05/29 04:42:52;;;;;;;2.25;0.68;;;13.10;68.80;;;;;;5111914;28;19927;-85
2022/05/29 04:45:18;;;;;;;;;;;13.10;69.10;;;;;;5117589;27;20046;-85
2022/05/29 04:47:43;;;;;;;2.17;0.45;;;13.20;68.90;;;;;;5133473;27;19922;-85
2022/05/29 04:50:09;;;;;;;;;;;13.20;68.90;;;;;;5115643;27;20027;-84
2022/05/29 04:52:35;;;;;;;1.17;0.40;;;13.30;69.40;;;;;;5114967;27;19907;-85
2022/05/29 04:55:00;;;;;;;;;;;13.30;68.50;;;;;;5133202;27;20102;-86
2022/05/29 04:57:26;;;;;;;1.52;0.32;;;13.30;69.90;;;;;;5116064;27;20528;-86
2022/05/29 04:59:52;;;;;;;;;;;13.40;69.80;;;;;;5135124;27;20019;-86
2022/05/29 05:02:18;;;;;;;2.53;0.40;;;13.50;69.70;;;;;;5116492;27;19904;-84
2022/05/29 05:04:43;;;;;;;;;;;13.50;69.00;;;;;;5134792;27;20484;-84
2022/05/29 05:07:09;;;;;;;2.53;0.40;;;13.50;68.10;;;;;;5116320;27;19903;-87
2022/05/29 05:09:35;;;;;;;;;;;13.50;68.20;;;;;;5116502;27;20407;-86
2022/05/29 05:12:01;;;;;;;3.55;0.50;;;13.60;68.10;;;;;;5115984;27;20438;-85
2022/05/29 05:14:28;;;;;;;;;;;13.70;68.60;;;;;;5116163;27;20820;-85
2022/05/29 05:16:54;;;;;;;2.97;0.70;;;13.80;68.60;;;;;;5116003;27;19939;-85
2022/05/29 05:19:21;;;;;;;1.20;0.47;;;13.80;67.20;;;;;;5133982;27;20559;-84
2022/05/29 05:21:48;;;;;;;1.05;0.40;;;13.90;66.10;;;;;;5115799;27;20118;-84
2022/05/29 05:24:14;;;;;;;0.90;0.30;;;14.10;66.40;;;;;;5134254;27;20094;-86
2022/05/29 05:26:39;;;;;;;;;;;14.10;67.60;;;;;;5134334;27;20106;-84
2022/05/29 05:29:05;;;;;;;1.27;0.40;;;14.30;67.10;;;;;;5115781;27;19951;-84
2022/05/29 05:31:31;;;;;;;;;;;14.40;67.00;;;;;;5116224;27;20026;-85
2022/05/29 05:33:57;;;;;;;2.47;0.75;;;14.50;67.80;;;;;;5134351;27;19908;-85
2022/05/29 05:36:22;;;;;;;;;;;14.50;66.90;;;;;;5135432;27;20429;-85
2022/05/29 05:38:48;;;;;;;3.67;0.60;;;14.70;67.70;;;;;;5134949;27;19909;-85
2022/05/29 05:41:14;;;;;;;;;;;14.80;66.30;;;;;;5116907;27;20059;-85
2022/05/29 05:43:40;;;;;;;2.63;0.60;;;14.90;64.70;;;;;;5116462;27;19917;-86
2022/05/29 05:46:12;;;;;;;3.67;0.40;;;15.00;64.50;;;;;;5133931;27;20038;-85
2022/05/29 05:48:39;;;;;;;1.15;0.40;;;15.10;63.10;;;;;;5133287;27;20028;-86
2022/05/29 05:51:05;;;;;;;2.72;0.35;;;15.20;61.60;;;;;;5134490;27;20493;-85
2022/05/29 05:53:32;;;;;;;1.73;0.38;;;15.20;59.40;;;;;;5134336;27;20031;-88
2022/05/29 05:55:57;;;;;;;1.35;0.40;;;15.20;59.90;;;;;;5133403;27;20114;-88
2022/05/29 05:58:23;;;;;;;;;;;15.10;60.30;;;;;;5134563;27;20102;-87
2022/05/29 06:00:49;;;;;;;1.30;0.50;;;15.10;58.50;;;;;;5134517;27;19910;-87
2022/05/29 06:03:15;;;;;;;0.88;0.30;;;15.10;59.20;;;;;;5115936;27;20023;-87
2022/05/29 06:05:42;;;;;;;1.30;0.40;;;15.20;59.70;;;;;;5115814;27;20130;-87
2022/05/29 06:08:08;;;;;;;0.95;0.45;;;15.30;59.40;;;;;;5115714;27;20020;-86
2022/05/29 06:10:34;;;;;;;1.38;0.40;;;15.30;58.90;;;;;;5133534;27;20054;-87
2022/05/29 06:13:04;;;;;;;;;;;15.60;58.20;;;;;;5134404;27;20476;-86
2022/05/29 06:15:30;;;;;;;5.00;0.40;;;15.80;58.80;;;;;;5110584;27;19903;-86
2022/05/29 06:17:56;;;;;;;2.88;1.17;;;16.00;57.90;;;;;;5133137;27;20027;-85
2022/05/29 06:20:22;;;;;;;;;;;16.20;56.90;;;;;;5115562;27;20499;-86
2022/05/29 06:22:48;;;;;;;1.50;0.40;;;16.20;54.00;;;;;;5133606;27;20291;-86
2022/05/29 06:25:14;;;;;;;1.70;0.60;;;16.00;54.10;;;;;;5115097;27;20042;-87
2022/05/29 06:27:41;;;;;;;;;;;15.90;54.10;;;;;;5133761;27;20433;-87
2022/05/29 06:30:09;;;;;;;1.15;0.57;;;15.80;55.40;;;;;;5133036;27;19904;-87
2022/05/29 06:32:38;;;;;;;2.33;0.40;;;15.90;56.00;;;;;;5114751;27;20034;-86
2022/05/29 06:35:07;;;;;;;2.75;0.45;;;16.00;55.20;;;;;;5134159;27;20054;-87
2022/05/29 06:37:32;;;;;;;3.05;0.70;;;16.00;54.30;;;;;;5115677;27;20395;-86
2022/05/29 06:39:58;;;;;;;;;;;15.90;53.90;;;;;;5115035;27;20023;-87
2022/05/29 06:42:24;;;;;;;4.55;0.50;;;15.70;54.50;;;;;;5132214;27;19954;-87
2022/05/29 06:44:50;;;;;;;5.85;0.50;;;15.80;54.10;;;;;;5113305;27;20136;-88
2022/05/29 06:47:18;;;;;;;2.63;0.60;;;15.80;54.20;;;;;;5115140;27;20107;-85
2022/05/29 06:49:48;;;;;;;2.08;0.40;;;15.90;54.40;;;;;;5133555;27;20027;-88
2022/05/29 06:52:14;;;;;;;5.25;0.60;;;15.90;54.40;;;;;;5132966;27;20054;-87
2022/05/29 06:54:39;;;;;;;;;;;15.90;54.10;;;;;;5134009;27;20412;-88
2022/05/29 06:57:10;;;;;;;;;;;15.80;53.60;;;;;;5115424;27;19903;-86
2022/05/29 07:06:59;;;;;;;;;;;15.80;54.80;;;;;;5132446;27;19946;-86
2022/05/29 07:07:51;;;;;;;;;;;15.90;53.50;;;;;;5133315;27;19910;-88
2022/05/29 07:10:16;;;;;;;;;;;15.80;54.30;;;;;;5133431;27;20207;-86
2022/05/29 07:12:42;;;;;;;;;;;15.90;54.70;;;;;;5133284;27;19956;-86
2022/05/29 07:15:08;;;;;;;;;;;15.90;54.50;;;;;;5133503;27;19903;-86
2022/05/29 07:17:34;;;;;;;;;;;15.90;52.90;;;;;;5132679;27;19919;-86
2022/05/29 07:19:59;;;;;;;;;;;16.00;53.50;;;;;;5113692;27;20334;-86
2022/05/29 07:22:32;;;;;;;;;;;16.10;53.60;;;;;;5132486;27;19911;-87
2022/05/29 07:24:58;;;;;;;;;;;16.20;53.40;;;;;;5132421;28;19918;-86
2022/05/29 07:27:23;;;;;;;;;;;16.40;53.70;;;;;;5114035;28;20359;-86
2022/05/29 07:29:49;;;;;;;;;;;16.50;53.00;;;;;;5114124;28;19903;-86
2022/05/29 07:32:14;;;;;;;;;;;16.50;52.20;;;;;;5114609;28;19911;-86
2022/05/29 07:34:43;;;;;;;;;;;16.50;52.50;;;;;;5132898;28;20376;-86
2022/05/29 07:37:12;;;;;;;;;;;16.70;53.00;;;;;;5133013;28;19954;-86
2022/05/29 07:39:40;;;;;;;;;;;16.90;52.10;;;;;;5132323;28;20011;-87
2022/05/29 07:45:01;;;;;;;;;;;17.10;50.10;;;;;;5077102;28;19920;-86
2022/05/29 07:47:27;;;;;;;;;;;17.10;51.30;;;;;;5132629;28;19948;-86
2022/05/29 07:49:53;;;;;;;;;;;17.10;50.60;;;;;;5114826;28;20239;-87
2022/05/29 07:52:19;;;;;;;;;;;17.00;50.90;;;;;;5115083;28;19905;-85
2022/05/29 07:54:45;;;;;;;;;;;17.00;52.10;;;;;;5114285;28;19903;-86
2022/05/29 07:57:11;;;;;;;;;;;17.00;50.80;;;;;;5114883;28;19963;-86
2022/05/29 07:59:37;;;;;;;;;;;17.10;50.40;;;;;;5114475;28;19945;-86
2022/05/29 08:02:02;;;;;;;;;;;17.00;51.00;;;;;;5114743;28;20363;-86
2022/05/29 08:04:28;;;;;;;;;;;17.10;51.50;;;;;;5114240;28;20443;-85
2022/05/29 08:06:54;;;;;;;;;;;17.20;51.00;;;;;;5114071;28;19937;-86
2022/05/29 08:09:19;;;;;;;;;;;17.40;50.60;;;;;;5132828;28;19903;-86
2022/05/29 08:11:45;;;;;;;;;;;17.50;49.80;;;;;;5133275;27;19994;-85
2022/05/29 08:14:10;;;;;;;;;;;17.70;50.10;;;;;;5118188;27;20745;-86
2022/05/29 08:16:36;;;;;;;;;;;17.70;50.30;;;;;;5136499;27;19910;-85
2022/05/29 08:19:02;;;;;;;;;;;17.90;49.50;;;;;;5118117;27;19911;-85
2022/05/29 08:21:28;;;;;;;;;;;17.90;49.00;;;;;;5136324;27;19911;-85
2022/05/29 08:32:06;;;;;;;;;;;17.80;50.60;;;;;;5136810;27;19910;-86
2022/05/29 08:34:32;;;;;;;;;;;18.00;50.80;;;;;;5137140;27;19912;-87
2022/05/29 08:36:58;;;;;;;;;;;18.30;50.50;;;;;;5136382;27;19907;-86
2022/05/29 08:39:24;;;;;;;;;;;18.50;50.50;;;;;;5136893;27;20704;-85
2022/05/29 08:41:52;;;;;;;;;;;18.70;49.00;;;;;;5135936;27;19903;-84
2022/05/29 08:44:21;;;;;;;;;;;18.80;49.40;;;;;;5135359;27;19919;-82
2022/05/29 08:46:52;;;;;;;;;;;18.80;50.10;;;;;;5116838;27;20304;-81
2022/05/29 08:49:19;;;;;;;;;;;18.90;48.90;;;;;;5133028;27;20287;-83
2022/05/29 08:51:44;;;;;;;;;;;18.70;49.00;;;;;;5134936;27;19907;-83
2022/05/29 08:54:14;;;;;;;;;;;18.60;49.60;;;;;;5135227;27;19903;-85
2022/05/29 08:56:46;;;;;;;;;;;18.30;49.20;;;;;;5117428;27;19907;-86
2022/05/29 08:59:35;;;;;;;;;;;18.10;50.10;;;;;;5134989;27;19950;-86
2022/05/29 09:02:07;;;;;;;;;;;17.90;50.30;;;;;;5106175;27;19946;-86
2022/05/29 09:04:35;;;;;;;;;;;17.70;51.10;;;;;;5117453;27;19911;-86
2022/05/29 09:07:02;;;;;;;;;;;17.60;51.30;;;;;;5135820;27;19911;-87
2022/05/29 09:09:47;;;;;;;;;;;17.60;51.80;;;;;;5135801;27;20402;-86
2022/05/29 09:12:15;;;;;;;;;;;17.70;52.30;;;;;;5117607;27;19925;-85
2022/05/29 09:14:44;;;;;;;;;;;17.70;52.40;;;;;;5117799;27;19950;-87
2022/05/29 09:17:13;;;;;;;;;;;17.80;52.30;;;;;;5117116;27;20602;-85
2022/05/29 09:19:39;;;;;;;;;;;17.90;52.20;;;;;;5117534;27;19903;-86
2022/05/29 09:22:17;;;;;;;;;;;18.00;50.70;;;;;;5116576;27;20702;-86
2022/05/29 09:24:49;;;;;;;;;;;18.10;50.60;;;;;;5134265;27;19964;-86
2022/05/29 09:27:15;;;;;;;;;;;18.00;50.80;;;;;;5116629;27;19911;-85
2022/05/29 09:29:40;;;;;;;;;;;18.00;51.10;;;;;;5122393;27;20394;-85
2022/05/29 09:32:12;;;;;;;;;;;17.90;50.40;;;;;;5137260;27;19903;-83
2022/05/29 09:34:37;;;;;;;;;;;18.00;49.30;;;;;;5139908;27;19907;-84
2022/05/29 09:37:17;;;;;;;;;;;17.90;49.60;;;;;;5114583;27;19956;-83
2022/05/29 09:39:44;;;;;;;;;;;17.80;50.20;;;;;;5133061;27;19915;-84
2022/05/29 09:42:14;;;;;;;;;;;17.90;49.80;;;;;;5133425;27;20865;-85
2022/05/29 09:45:00;;;;;;;;;;;18.00;49.40;;;;;;5133844;27;19911;-85
2022/05/29 09:50:19;;;;;;;;;;;17.90;49.50;;;;;;5134826;27;19969;-88
2022/05/29 09:52:45;;;;;;;;;;;17.90;49.80;;;;;;5133429;27;19934;-85
2022/05/29 09:55:22;;;;;;;;;;;18.10;49.40;;;;;;5134029;27;19994;-85
2022/05/29 09:57:48;;;;;;;;;;;18.10;48.40;;;;;;5115840;27;19903;-85
2022/05/29 10:00:14;;;;;;;;;;;18.10;48.70;;;;;;5117713;27;19936;-84
2022/05/29 10:02:41;;;;;;;;;;;18.20;49.10;;;;;;5117136;27;20406;-88
2022/05/29 10:05:25;;;;;;;;;;;18.30;49.20;;;;;;5134441;27;19919;-85
2022/05/29 10:07:51;;;;;;;;;;;18.20;49.20;;;;;;5107280;27;19910;-85
2022/05/29 10:10:26;;;;;;;;;;;18.30;49.50;;;;;;5115806;27;19953;-86
2022/05/29 10:12:53;;;;;;;;;;;18.30;49.10;;;;;;5115892;27;19907;-86
2022/05/29 10:15:19;;;;;;;;;;;18.20;48.10;;;;;;5115669;27;19915;-85
2022/05/29 10:17:44;;;;;;;;;;;18.30;48.70;;;;;;5134023;27;19908;-85
2022/05/29 10:20:30;;;;;;;;;;;18.40;48.80;;;;;;5144722;27;19948;-85
2022/05/29 10:22:57;;;;;;;;;;;18.50;48.30;;;;;;5140807;27;19903;-85
2022/05/29 10:25:25;;;;;;;;;;;18.60;48.00;;;;;;5133987;27;19919;-85
2022/05/29 10:27:52;;;;;;;;;;;18.50;49.00;;;;;;5132362;27;19903;-84
2022/05/29 10:30:47;;;;;;;;;;;18.60;48.30;;;;;;5112877;27;19908;-83
2022/05/29 10:33:18;;;;;;;;;;;18.80;45.90;;;;;;5109045;27;19911;-83
2022/05/29 10:35:43;;;;;;;;;;;18.80;46.20;;;;;;5112914;27;19903;-82
2022/05/29 10:38:18;;;;;;;;;;;18.70;46.20;;;;;;5113294;27;19913;-83
2022/05/29 10:40:45;;;;;;;;;;;18.60;46.30;;;;;;5131757;27;19907;-82
2022/05/29 10:43:11;;;;;;;;;;;18.60;45.80;;;;;;5113005;27;19971;-78
2022/05/29 10:45:42;;;;;;;;;;;18.70;46.90;;;;;;5130357;27;20352;-79
2022/05/29 10:48:15;;;;;;;;;;;18.90;47.20;;;;;;5111706;27;20025;-80
2022/05/29 10:50:59;;;;;;;;;;;19.20;46.00;;;;;;5111704;27;19907;-80
2022/05/29 10:53:44;;;;;;;;;;;19.10;46.00;;;;;;5111414;27;19907;-80
2022/05/29 10:56:39;;;;;;;;;;;19.40;45.70;;;;;;5111416;27;19907;-80
2022/05/29 10:59:13;;;;;;;;;;;19.50;44.80;;;;;;5093928;27;19912;-80
2022/05/29 11:04:28;;;;;;;;;;;19.50;44.30;;;;;;5130043;27;19964;-80
2022/05/29 11:07:12;;;;;;;;;;;19.70;44.90;;;;;;5130171;27;19954;-79
2022/05/29 11:09:47;;;;;;;;;;;19.50;43.90;;;;;;5121081;27;19954;-80
2022/05/29 11:12:15;;;;;;;;;;;19.40;44.40;;;;;;5135112;27;19954;-81
2022/05/29 11:14:42;;;;;;;;;;;19.40;44.10;;;;;;5111953;27;19907;-80
2022/05/29 11:17:43;;;;;;;;;;;19.40;44.50;;;;;;5111692;28;19922;-81
2022/05/29 11:20:40;;;;;;;;;;;19.30;43.40;;;;;;5026198;28;19905;-80
2022/05/29 11:23:17;;;;;;;;;;;19.30;43.80;;;;;;5129617;27;20398;-80
2022/05/29 11:25:42;;;;;;;;;;;19.40;42.10;;;;;;5130596;28;19918;-81
2022/05/29 11:28:11;;;;;;;;;;;19.30;41.90;;;;;;5130892;27;19907;-82
2022/05/29 11:30:36;;;;;;;;;;;19.30;42.80;;;;;;5112623;28;19936;-82
2022/05/29 11:33:27;;;;;;;;;;;19.40;43.80;;;;;;5130825;28;19904;-82
2022/05/29 11:36:11;;;;;;;;;;;19.30;43.60;;;;;;5122386;28;19922;-81
2022/05/29 11:38:44;;;;;;;;;;;19.40;43.10;;;;;;5127546;27;19919;-78
2022/05/29 11:41:13;;;;;;;;;;;19.50;42.80;;;;;;5113434;27;19919;-79
2022/05/29 11:43:47;;;;;;;;;;;19.60;42.20;;;;;;5123629;27;19930;-79
2022/05/29 11:52:26;;;;;;;;;;;19.50;42.30;;;;;;5080889;28;19930;-79
2022/05/29 11:55:03;;;;;;;;;;;19.50;43.10;;;;;;5122366;27;19919;-79
2022/05/29 11:57:28;;;;;;;;;;;19.50;43.40;;;;;;5109836;27;20283;-78
2022/05/29 12:00:04;;;;;;;;;;;19.40;43.20;;;;;;5117415;27;19915;-79
2022/05/29 12:02:40;;;;;;;;;;;19.40;43.30;;;;;;5122371;27;19919;-79
2022/05/29 12:05:09;;;;;;;;;;;19.40;42.10;;;;;;5143237;27;19950;-79
2022/05/29 12:07:39;;;;;;;;;;;19.10;41.70;;;;;;5131888;27;20002;-79
2022/05/29 12:10:15;;;;;;;;;;;19.30;43.30;;;;;;5137554;27;20488;-80
2022/05/29 12:12:43;;;;;;;;;;;19.50;41.90;;;;;;5127913;27;19922;-80
2022/05/29 12:15:17;;;;;;;;;;;19.50;42.40;;;;;;5117201;27;19954;-79
2022/05/29 12:17:49;;;;;;;;;;;19.70;40.60;;;;;;5106470;27;19915;-80
2022/05/29 12:20:27;;;;;;;;;;;19.50;39.60;;;;;;5128723;27;20436;-79
2022/05/29 12:22:57;;;;;;;;;;;19.50;41.00;;;;;;5139522;27;20326;-80
2022/05/29 12:25:41;;;;;;;;;;;19.60;41.00;;;;;;5127255;27;20690;-81
2022/05/29 12:28:09;;;;;;;;;;;19.70;41.20;;;;;;5132983;27;19919;-80
2022/05/29 12:30:43;;;;;;;;;;;19.50;42.20;;;;;;5114513;27;19919;-80
2022/05/29 12:33:16;;;;;;;;;;;19.10;43.30;;;;;;5123287;27;19923;-80
2022/05/29 12:35:55;;;;;;;;;;;18.90;44.40;;;;;;5132403;27;19968;-81
2022/05/29 12:38:36;;;;;;;;;;;19.00;43.70;;;;;;5131480;27;19965;-83
2022/05/29 12:41:11;;;;;;;;;;;18.80;43.90;;;;;;5132989;27;19934;-83
2022/05/29 12:43:52;;;;;;;;;;;18.60;45.20;;;;;;5114965;27;20421;-84
2022/05/29 12:46:18;;;;;;;;;;;18.50;44.90;;;;;;5129146;27;19923;-84
2022/05/29 12:48:58;;;;;;;;;;;18.40;45.10;;;;;;5104585;27;19911;-83
2022/05/29 12:51:32;;;;;;;;;;;18.40;44.90;;;;;;5132108;27;19915;-83
2022/05/29 12:54:05;;;;;;;;;;;18.30;45.00;;;;;;5116164;27;19911;-83
2022/05/29 12:56:44;;;;;;;;;;;18.30;45.80;;;;;;5104641;27;19916;-83
2022/05/29 12:59:13;;;;;;;;;;;18.10;45.00;;;;;;5102070;27;19926;-83
2022/05/29 13:01:45;;;;;;;;;;;18.10;46.20;;;;;;5102341;27;19919;-83
2022/05/29 13:04:20;;;;;;;;;;;18.20;45.40;;;;;;5097077;27;19919;-83
2022/05/29 13:07:05;;;;;;;;;;;18.20;46.20;;;;;;5133358;27;19919;-83
2022/05/29 13:09:37;;;;;;;;;;;18.20;46.20;;;;;;5126475;27;19920;-83
2022/05/29 13:12:11;;;;;;;;;;;18.10;45.90;;;;;;5118938;27;19933;-82
2022/05/29 13:14:37;;;;;;;;;;;18.00;46.40;;;;;;5131566;27;19911;-83
2022/05/29 13:17:10;;;;;;;;;;;18.00;46.60;;;;;;5128797;27;20450;-83
2022/05/29 13:19:54;;;;;;;;;;;17.90;46.40;;;;;;5117066;27;20249;-82
2022/05/29 13:22:20;;;;;;;;;;;17.90;46.40;;;;;;5121095;27;19926;-82
2022/05/29 13:24:46;;;;;;;;;;;18.00;47.10;;;;;;5116522;27;19923;-83
2022/05/29 13:27:12;;;;;;;;;;;18.10;46.50;;;;;;5125448;27;19911;-82
2022/05/29 13:29:38;;;;;;;;;;;18.10;46.30;;;;;;5115560;27;19959;-84
2022/05/29 13:32:13;;;;;;;;;;;18.00;46.00;;;;;;5133975;27;20375;-85
2022/05/29 13:35:02;;;;;;;;;;;18.00;47.30;;;;;;5136335;27;20391;-83
2022/05/29 13:37:47;;;;;;;;;;;18.00;47.30;;;;;;5082169;27;19961;-82
2022/05/29 13:40:22;;;;;;;;;;;17.90;46.80;;;;;;5140055;27;20302;-83
2022/05/29 13:42:49;;;;;;;;;;;17.80;46.80;;;;;;5112521;27;19962;-83
2022/05/29 13:45:23;;;;;;;;;;;17.80;47.10;;;;;;5148082;27;19921;-83
2022/05/29 13:48:01;;;;;;;;;;;17.70;47.40;;;;;;5124892;27;19919;-82
2022/05/29 13:50:39;;;;;;;;;;;17.60;47.70;;;;;;5125310;27;20390;-84
2022/05/29 13:53:10;;;;;;;;;;;17.70;48.30;;;;;;5131053;27;19919;-84
2022/05/29 13:55:35;;;;;;;;;;;17.60;48.40;;;;;;5132508;27;19946;-83
2022/05/29 14:06:26;;;;;;;;;;;17.60;48.70;;;;;;5132285;27;19918;-83
2022/05/29 14:08:52;;;;;;;;;;;17.60;48.80;;;;;;5130467;27;20006;-84
2022/05/29 14:11:18;;;;;;;;;;;17.50;49.00;;;;;;5131760;27;20010;-84
2022/05/29 14:13:46;;;;;;;;;;;17.50;49.40;;;;;;5132288;27;19907;-83
2022/05/29 14:16:32;;;;;;;;;;;17.50;49.20;;;;;;5132053;27;20018;-83
2022/05/29 14:19:18;;;;;;;;;;;17.40;49.20;;;;;;5130611;27;19910;-84
2022/05/29 14:21:47;;;;;;;;;;;17.20;50.00;;;;;;5131651;27;20332;-84
2022/05/29 14:24:20;;;;;;;;;;;17.30;50.50;;;;;;5131793;27;20363;-84
2022/05/29 14:27:09;;;;;;;;;;;17.20;49.70;;;;;;5131800;27;19950;-84
2022/05/29 14:29:34;;;;;;;;;;;17.20;49.50;;;;;;5123034;27;19907;-82
2022/05/29 14:32:03;;;;;;;;;;;17.10;50.00;;;;;;5130505;27;19910;-85
2022/05/29 14:34:34;;;;;;;;;;;17.10;50.00;;;;;;5130411;27;19903;-84
2022/05/29 14:37:06;;;;;;;;;;;17.00;49.90;;;;;;5130455;27;19930;-85
2022/05/29 14:39:35;;;;;;;;;;;16.90;49.90;;;;;;5130641;27;19909;-85
2022/05/29 14:42:00;;;;;;;;;;;16.90;49.90;;;;;;5131300;27;19954;-84
2022/05/29 14:44:29;;;;;;;;;;;16.90;49.60;;;;;;5129986;27;19919;-84